Time;durP1;ratioP1;P1;durP2;ratioP2;P2;SDS_P1;SDS_P2;PMS_P1;PMS_P2;Temp;Humidity;BMP_temperature;BMP_pressure;BME280_temperature;BME280_humidity;BME280_pressure;Samples;Min_cycle;Max_cycle;Signal;HPM_P1;HPM_P2
2022/04/02 00:01:00;;;;;;;65.27;61.17;;;;;;;3.21;100.00;102136.17;2008398;71;32743;-74
2022/04/02 00:06:45;;;;;;;67.40;62.90;;;;;;;3.12;100.00;102136.88;2007809;71;32818;-75
2022/04/02 00:12:29;;;;;;;67.27;62.97;;;;;;;3.35;100.00;102137.92;2013139;71;32958;-72
2022/04/02 00:18:13;;;;;;;69.10;65.00;;;;;;;3.44;100.00;102135.83;1997477;70;33333;-73
2022/04/02 00:23:57;;;;;;;64.73;60.73;;;;;;;3.49;100.00;102126.45;2013283;71;32836;-75
2022/04/02 00:29:42;;;;;;;67.07;62.77;;;;;;;3.49;100.00;102121.80;2009563;71;32851;-73
2022/04/02 00:35:26;;;;;;;66.83;62.53;;;;;;;3.30;100.00;102118.46;2006639;71;32765;-74
2022/04/02 00:41:12;;;;;;;65.37;61.27;;;;;;;3.21;100.00;102134.27;2013290;71;33332;-73
2022/04/02 00:46:57;;;;;;;68.23;63.83;;;;;;;3.41;100.00;102135.73;2002693;71;32873;-74
2022/04/02 00:52:42;;;;;;;66.60;62.40;;;;;;;3.39;100.00;102138.34;1991941;71;33219;-72
2022/04/02 00:58:26;;;;;;;69.30;64.90;;;;;;;3.12;100.00;102140.99;1996018;70;33382;-74
2022/04/02 01:04:10;;;;;;;68.20;63.77;;;;;;;3.18;100.00;102134.70;2000559;71;32853;-75
2022/04/02 01:09:57;;;;;;;71.00;66.50;;;;;;;3.19;100.00;102135.55;2015053;71;32838;-74
2022/04/02 01:15:42;;;;;;;68.93;64.47;;;;;;;3.05;100.00;102142.02;1991934;71;32883;-74
2022/04/02 01:21:27;;;;;;;69.57;65.07;;;;;;;2.99;100.00;102140.11;2007900;71;32822;-72
2022/04/02 01:27:11;;;;;;;72.77;67.87;;;;;;;3.09;100.00;102127.69;1991822;70;32814;-75
2022/04/02 01:32:56;;;;;;;71.23;66.30;;;;;;;3.00;100.00;102131.66;2002533;71;32969;-72
2022/04/02 01:38:40;;;;;;;70.73;66.03;;;;;;;2.99;100.00;102130.50;1999236;71;32772;-74
2022/04/02 01:44:24;;;;;;;73.13;68.17;;;;;;;2.89;100.00;102129.50;2006475;71;32837;-73
2022/04/02 01:50:11;;;;;;;69.20;64.63;;;;;;;2.91;100.00;102127.38;2002153;71;32917;-75
2022/04/02 01:55:56;;;;;;;71.40;66.70;;;;;;;2.89;100.00;102136.36;2013135;71;32843;-73
2022/04/02 02:01:39;;;;;;;73.37;68.47;;;;;;;2.88;100.00;102126.42;2000897;71;32879;-74
2022/04/02 02:07:23;;;;;;;73.83;68.77;;;;;;;2.78;100.00;102133.35;2006135;71;33303;-75
2022/04/02 02:13:07;;;;;;;71.63;66.77;;;;;;;2.73;100.00;102134.81;1994978;71;32841;-74
2022/04/02 02:18:52;;;;;;;73.80;68.90;;;;;;;2.68;100.00;102135.94;1998881;71;32885;-73
2022/04/02 02:24:36;;;;;;;73.70;68.80;;;;;;;2.68;100.00;102125.48;2009561;71;32831;-74
2022/04/02 02:30:20;;;;;;;74.40;69.40;;;;;;;2.64;100.00;102137.39;1997100;71;33264;-73
2022/04/02 02:36:05;;;;;;;76.73;71.47;;;;;;;2.56;100.00;102143.03;1996946;71;32833;-73
2022/04/02 02:41:49;;;;;;;76.47;71.30;;;;;;;2.63;100.00;102134.84;1998546;71;32873;-74
2022/04/02 02:47:34;;;;;;;78.90;73.60;;;;;;;2.65;100.00;102140.98;2000764;71;32847;-74
2022/04/02 02:53:18;;;;;;;74.57;69.30;;;;;;;2.52;100.00;102130.78;2009563;71;32831;-74
2022/04/02 02:59:04;;;;;;;74.63;69.33;;;;;;;2.60;100.00;102140.22;2010217;71;33236;-74
2022/04/02 03:04:48;;;;;;;79.00;73.67;;;;;;;2.60;100.00;102136.62;2011421;71;33356;-74
2022/04/02 03:10:33;;;;;;;78.73;73.33;;;;;;;2.64;100.00;102127.78;2009375;71;32831;-74
2022/04/02 03:16:18;;;;;;;77.57;72.10;;;;;;;2.53;100.00;102128.33;2009319;71;33296;-74
2022/04/02 03:22:02;;;;;;;78.73;73.03;;;;;;;2.44;100.00;102131.45;1991616;71;33377;-75
2022/04/02 03:27:47;;;;;;;73.37;68.07;;;;;;;2.57;100.00;102127.40;2015081;71;33318;-74
2022/04/02 03:33:32;;;;;;;73.37;68.10;;;;;;;2.55;100.00;102138.59;2007474;71;32892;-74
2022/04/02 03:39:16;;;;;;;73.87;68.73;;;;;;;2.44;100.00;102139.13;2009864;71;32801;-73
2022/04/02 03:45:00;;;;;;;77.30;71.60;;;;;;;2.40;100.00;102139.73;1987747;71;39741;-72
2022/04/02 03:50:44;;;;;;;76.57;71.13;;;;;;;2.24;100.00;102141.73;2016749;71;32887;-72
2022/04/02 03:56:29;;;;;;;76.77;71.27;;;;;;;2.50;100.00;102136.97;2013125;71;32821;-74
2022/04/02 04:02:13;;;;;;;77.80;72.10;;;;;;;2.42;100.00;102133.53;1991656;70;32919;-72
2022/04/02 04:07:57;;;;;;;78.00;72.30;;;;;;;2.42;100.00;102137.65;2002929;71;33331;-73
2022/04/02 04:13:42;;;;;;;77.30;71.83;;;;;;;2.48;100.00;102129.45;1995556;71;33267;-74
2022/04/02 04:19:27;;;;;;;81.33;75.60;;;;;;;1.94;100.00;102137.98;2016745;71;32865;-74
2022/04/02 04:25:11;;;;;;;76.63;71.03;;;;;;;1.87;100.00;102146.69;2013150;71;32951;-73
2022/04/02 04:30:56;;;;;;;78.63;72.83;;;;;;;2.16;100.00;102139.14;2002771;71;33264;-74
2022/04/02 04:36:40;;;;;;;76.90;71.27;;;;;;;2.07;100.00;102143.07;1991514;71;33304;-75
2022/04/02 04:42:24;;;;;;;76.77;71.07;;;;;;;2.25;100.00;102144.81;2007821;71;32842;-73
2022/04/02 04:48:09;;;;;;;78.50;72.80;;;;;;;2.26;100.00;102145.66;1998559;71;32876;-73
2022/04/02 04:53:53;;;;;;;76.13;70.33;;;;;;;2.42;100.00;102145.88;1997092;71;32813;-73
2022/04/02 04:59:37;;;;;;;79.17;73.30;;;;;;;2.31;100.00;102154.66;2013263;71;33433;-74
2022/04/02 05:05:23;;;;;;;80.00;74.03;;;;;;;2.32;100.00;102159.92;2005946;71;32819;-73
2022/04/02 05:11:09;;;;;;;78.80;72.90;;;;;;;2.26;100.00;102167.08;2014966;71;32809;-75
2022/04/02 05:16:56;;;;;;;78.50;72.80;;;;;;;2.24;100.00;102166.93;2009585;71;32976;-73
2022/04/02 05:22:42;;;;;;;80.40;74.60;;;;;;;2.17;100.00;102173.73;2000201;71;32878;-73
2022/04/02 05:28:27;;;;;;;79.20;73.17;;;;;;;2.00;100.00;102184.66;2009507;71;32988;-74
2022/04/02 05:34:12;;;;;;;78.73;72.73;;;;;;;2.07;100.00;102186.06;2016777;71;32824;-73
2022/04/02 05:39:57;;;;;;;75.70;70.03;;;;;;;2.05;100.00;102184.06;2013259;71;33401;-73
2022/04/02 05:45:41;;;;;;;77.33;71.43;;;;;;;2.15;100.00;102195.52;2000199;71;32886;-73
2022/04/02 05:51:25;;;;;;;77.07;71.07;;;;;;;2.21;100.00;102190.11;2011412;71;32871;-72
2022/04/02 05:57:09;;;;;;;78.47;72.27;;;;;;;2.21;100.00;102189.27;1968706;72;32964;-72
2022/04/02 06:02:54;;;;;;;79.00;72.83;;;;;;;2.13;100.00;102199.00;2005733;71;32822;-72
2022/04/02 06:08:39;;;;;;;79.40;73.27;;;;;;;2.25;100.00;102197.41;2002225;71;32831;-73
2022/04/02 06:14:23;;;;;;;79.37;73.13;;;;;;;2.31;100.00;102202.64;2009835;71;33314;-73
2022/04/02 06:20:10;;;;;;;80.83;74.53;;;;;;;2.34;100.00;102205.83;2015001;71;33327;-73
2022/04/02 06:25:54;;;;;;;82.53;76.30;;;;;;;2.42;100.00;102219.91;1995119;71;32938;-71
2022/04/02 06:31:39;;;;;;;82.13;75.97;;;;;;;2.47;100.00;102222.91;2011460;71;32933;-70
2022/04/02 06:37:23;;;;;;;79.37;73.07;;;;;;;2.47;100.00;102228.40;2014738;71;32828;-72
2022/04/02 06:43:08;;;;;;;82.60;75.87;;;;;;;2.43;100.00;102247.15;2007646;71;32812;-74
2022/04/02 06:48:52;;;;;;;78.43;72.33;;;;;;;2.52;100.00;102250.08;2016801;71;32938;-73
2022/04/02 06:54:36;;;;;;;77.90;72.07;;;;;;;2.52;100.00;102258.31;2016658;71;33340;-75
2022/04/02 07:00:22;;;;;;;79.40;73.50;;;;;;;2.38;100.00;102257.85;2013039;71;32829;-76
2022/04/02 07:06:07;;;;;;;77.60;71.90;;;;;;;2.97;100.00;102269.83;2009937;71;33228;-73
2022/04/02 07:11:52;;;;;;;76.77;70.77;;;;;;;3.21;100.00;102269.34;2005659;71;32985;-71
2022/04/02 07:17:36;;;;;;;78.23;72.50;;;;;;;3.47;100.00;102265.88;2013117;71;32814;-74
2022/04/02 07:23:24;;;;;;;76.67;71.03;;;;;;;3.67;100.00;102266.84;2015005;70;32836;-75
2022/04/02 07:29:10;;;;;;;75.20;69.93;;;;;;;3.92;100.00;102270.73;2012921;71;32972;-75
2022/04/02 07:34:55;;;;;;;76.60;71.20;;;;;;;4.11;100.00;102277.33;2004320;71;32889;-73
2022/04/02 07:40:48;;;;;;;77.13;71.93;;;;;;;4.28;100.00;102277.26;1991426;71;33288;-76
2022/04/02 07:43:22;;;;;;;79.40;73.63;;;;;;;4.43;100.00;102271.05;1959603;72;26208;-75
2022/04/02 07:45:57;;;;;;;74.60;69.07;;;;;;;4.55;100.00;102280.90;1976846;72;26315;-73
2022/04/02 07:51:42;;;;;;;71.90;67.00;;;;;;;4.92;100.00;102271.17;2003817;71;33386;-75
2022/04/02 07:57:31;;;;;;;72.23;67.77;;;;;;;5.34;100.00;102271.20;2013557;71;32965;-71
2022/04/02 08:03:17;;;;;;;74.43;69.83;;;;;;;5.65;100.00;102267.15;2002492;71;33241;-74
2022/04/02 08:09:04;;;;;;;66.87;62.63;;;;;;;5.95;100.00;102263.33;2013140;71;32832;-74
2022/04/02 08:14:51;;;;;;;66.77;62.57;;;;;;;6.19;100.00;102261.20;1995025;71;32743;-72
2022/04/02 08:20:37;;;;;;;65.27;61.27;;;;;;;6.52;100.00;102261.48;2014918;71;32962;-74
2022/04/02 08:26:28;;;;;;;64.57;60.87;;;;;;;6.81;100.00;102267.72;2013221;71;33354;-76
2022/04/02 08:32:29;;;;;;;58.40;55.20;;;;;;;6.98;100.00;102272.13;2011477;71;32799;-75
2022/04/02 08:38:25;;;;;;;52.30;49.50;;;;;;;7.20;100.00;102271.49;2006144;71;32820;-76
2022/04/02 08:48:39;;;;;;;48.43;45.63;;;;;;;7.49;100.00;102271.28;2005889;71;32918;-74
2022/04/02 08:54:31;;;;;;;42.33;40.10;;;;;;;7.66;100.00;102268.73;2011680;71;32780;-76
2022/04/02 09:00:23;;;;;;;37.67;35.70;;;;;;;7.67;100.00;102269.90;2002202;71;32839;-75
2022/04/02 09:07:14;;;;;;;32.10;30.40;;;;;;;8.00;100.00;102261.73;2009868;71;32732;-75
2022/04/02 09:13:45;;;;;;;29.17;27.67;;;;;;;7.95;100.00;102260.20;2009777;71;32946;-75
2022/04/02 09:19:43;;;;;;;31.40;29.77;;;;;;;7.94;100.00;102264.88;2007617;71;32912;-75
2022/04/02 09:26:02;;;;;;;31.37;29.77;;;;;;;7.53;100.00;102274.45;2013523;71;32893;-75
2022/04/02 09:32:41;;;;;;;26.13;24.83;;;;;;;7.97;100.00;102271.32;1991465;70;32736;-76
2022/04/02 09:39:06;;;;;;;27.97;26.37;;;;;;;7.78;100.00;102276.59;1994746;71;34596;-75
2022/04/02 09:45:09;;;;;;;25.33;24.07;;;;;;;7.43;100.00;102287.42;2011099;71;32833;-75
2022/04/02 09:51:24;;;;;;;22.37;20.97;;;;;;;7.92;100.00;102277.23;2002456;71;32774;-75
2022/04/02 09:57:19;;;;;;;15.23;14.43;;;;;;;8.89;100.00;102276.88;1973324;72;32984;-75
2022/04/02 10:00:03;;;;;;;13.23;12.53;;;;;;;8.98;100.00;102273.20;1948269;73;26243;-74
2022/04/02 10:05:56;;;;;;;10.87;10.37;;;;;;;9.40;100.00;102274.77;2009484;71;32891;-76
2022/04/02 10:08:30;;;;;;;10.90;10.40;;;;;;;9.23;100.00;102273.81;1973069;72;26196;-75
2022/04/02 10:11:03;;;;;;;10.83;10.23;;;;;;;9.34;100.00;102270.72;1972982;72;26282;-75
2022/04/02 10:13:35;;;;;;;11.03;10.43;;;;;;;9.51;100.00;102268.89;1975861;72;26678;-75
2022/04/02 10:19:23;;;;;;;10.00;9.50;;;;;;;9.38;100.00;102274.69;2004345;71;32737;-75
2022/04/02 10:25:12;;;;;;;9.60;9.20;;;;;;;8.77;100.00;102277.37;2011259;71;32844;-75
2022/04/02 10:30:59;;;;;;;10.60;9.80;;;;;;;8.67;100.00;102282.68;2009710;70;32779;-75
2022/04/02 10:36:50;;;;;;;11.03;10.43;;;;;;;8.21;100.00;102289.71;2011541;71;32936;-75
2022/04/02 10:42:38;;;;;;;11.30;10.43;;;;;;;8.62;100.00;102275.08;2016830;71;32927;-73
2022/04/02 10:48:30;;;;;;;9.83;9.33;;;;;;;8.78;100.00;102268.53;2007705;71;32852;-75
2022/04/02 10:54:20;;;;;;;10.30;9.80;;;;;;;8.82;100.00;102276.66;2009268;71;32802;-75
2022/04/02 11:00:07;;;;;;;10.63;10.03;;;;;;;8.98;100.00;102272.67;2014771;70;32791;-75
2022/04/02 11:05:57;;;;;;;10.00;9.60;;;;;;;8.76;100.00;102269.33;2014919;71;32874;-76
2022/04/02 11:11:45;;;;;;;10.27;9.87;;;;;;;8.59;100.00;102269.17;2006112;71;32805;-76
2022/04/02 11:17:33;;;;;;;10.40;9.90;;;;;;;8.89;100.00;102265.80;2004239;71;33350;-73
2022/04/02 11:23:25;;;;;;;11.20;10.40;;;;;;;8.91;100.00;102262.77;2014679;71;32805;-75
2022/04/02 11:29:14;;;;;;;10.00;9.50;;;;;;;9.07;100.00;102256.53;2011467;71;33268;-74
2022/04/02 11:35:00;;;;;;;11.00;10.30;;;;;;;9.30;100.00;102257.04;2000658;71;32816;-75
2022/04/02 11:37:34;;;;;;;10.77;10.20;;;;;;;9.33;100.00;102260.16;1974404;72;26274;-75
2022/04/02 11:43:23;;;;;;;10.97;10.40;;;;;;;9.37;100.00;102255.81;2013330;71;32880;-74
2022/04/02 11:49:11;;;;;;;10.10;9.50;;;;;;;9.91;100.00;102248.95;2011349;71;32912;-75
2022/04/02 11:55:02;;;;;;;10.63;9.93;;;;;;;9.45;100.00;102251.31;2013164;71;32808;-75
2022/04/02 12:00:48;;;;;;;10.20;9.73;;;;;;;9.12;100.00;102258.85;2014752;71;32851;-76
2022/04/02 12:06:39;;;;;;;10.53;9.93;;;;;;;8.72;100.00;102263.42;1995163;71;32850;-75
2022/04/02 12:12:31;;;;;;;10.43;9.83;;;;;;;8.72;100.00;102276.42;2007669;71;32811;-75
2022/04/02 12:18:23;;;;;;;10.27;9.77;;;;;;;8.71;100.00;102271.42;2012868;71;32803;-75
2022/04/02 12:24:11;;;;;;;10.80;10.30;;;;;;;8.53;100.00;102266.80;2018373;71;32789;-75
2022/04/02 12:29:58;;;;;;;10.03;9.63;;;;;;;8.85;100.00;102263.20;2014881;71;32860;-75
2022/04/02 12:35:50;;;;;;;10.50;10.00;;;;;;;9.20;100.00;102254.05;2000559;71;32740;-75
2022/04/02 12:41:49;;;;;;;10.53;9.93;;;;;;;9.66;100.00;102247.05;2014678;71;32817;-75
2022/04/02 12:47:36;;;;;;;10.07;9.57;;;;;;;9.52;100.00;102247.00;2011737;71;32778;-76
2022/04/02 12:53:35;;;;;;;10.20;9.70;;;;;;;9.25;100.00;102245.83;2016621;71;32860;-76
2022/04/02 12:59:21;;;;;;;10.10;9.60;;;;;;;8.94;100.00;102241.52;2016702;71;32797;-75
2022/04/02 13:05:08;;;;;;;9.60;9.20;;;;;;;8.80;100.00;102242.83;2016563;71;32799;-74
2022/04/02 13:10:55;;;;;;;10.43;9.93;;;;;;;9.20;100.00;102232.69;2018633;71;32864;-74
2022/04/02 13:16:55;;;;;;;9.63;9.13;;;;;;;10.11;100.00;102222.12;2004474;71;33194;-74
2022/04/02 13:22:42;;;;;;;10.60;10.10;;;;;;;10.49;100.00;102214.52;2009649;71;33322;-75
2022/04/02 13:28:43;;;;;;;10.37;9.97;;;;;;;10.13;100.00;102216.34;2016599;71;33366;-74
2022/04/02 13:34:32;;;;;;;10.50;9.80;;;;;;;9.63;100.00;102220.34;2002541;71;32855;-74
2022/04/02 13:40:36;;;;;;;11.60;11.00;;;;;;;9.50;100.00;102218.66;2015083;71;33318;-75
2022/04/02 13:46:26;;;;;;;11.27;10.67;;;;;;;10.05;100.00;102213.42;1991589;71;32812;-74
2022/04/02 13:52:17;;;;;;;10.53;10.10;;;;;;;9.96;100.00;102210.20;2014761;71;32948;-76
2022/04/02 13:58:08;;;;;;;10.50;10.00;;;;;;;10.08;100.00;102209.30;2014681;71;32801;-75
2022/04/02 14:03:56;;;;;;;10.60;10.10;;;;;;;9.93;100.00;102213.45;2007560;71;33279;-75
2022/04/02 14:09:44;;;;;;;10.67;10.27;;;;;;;9.52;100.00;102231.75;2016753;71;33362;-75
2022/04/02 14:15:32;;;;;;;10.43;10.03;;;;;;;9.46;100.00;102238.27;2011220;71;32794;-75
2022/04/02 14:21:20;;;;;;;10.97;10.37;;;;;;;9.07;100.00;102233.78;2002312;71;33340;-76
2022/04/02 14:27:22;;;;;;;10.80;10.40;;;;;;;9.86;100.00;102223.86;2009760;71;32755;-74
2022/04/02 14:33:42;;;;;;;11.57;10.93;;;;;;;10.22;100.00;102225.44;2005731;71;32849;-75
2022/04/02 14:36:48;;;;;;;11.20;10.70;;;;;;;10.28;100.00;102224.42;1983018;72;26296;-75
2022/04/02 14:39:43;;;;;;;11.37;10.87;;;;;;;10.55;100.00;102221.85;1919240;72;26311;-75
2022/04/02 14:46:05;;;;;;;10.67;10.20;;;;;;;10.57;100.00;102219.65;2014876;71;33384;-75
2022/04/02 14:49:05;;;;;;;10.57;10.13;;;;;;;9.93;100.00;102229.25;1913739;72;26399;-74
2022/04/02 14:51:54;;;;;;;11.30;10.60;;;;;;;9.94;100.00;102230.41;1981261;72;26348;-75
2022/04/02 14:55:10;;;;;;;10.57;9.97;;;;;;;9.91;100.00;102240.63;1973495;72;26264;-74
2022/04/02 14:58:31;;;;;;;11.23;10.50;;;;;;;9.45;100.00;102244.38;1949036;73;26285;-75
2022/04/02 15:05:20;;;;;;;11.00;10.40;;;;;;;9.80;100.00;102237.33;2009244;71;32811;-75
2022/04/02 15:11:26;;;;;;;11.27;10.77;;;;;;;10.20;100.00;102234.55;2004670;71;32741;-75
2022/04/02 15:17:26;;;;;;;11.33;10.80;;;;;;;10.58;100.00;102239.41;1997140;71;32739;-74
2022/04/02 15:23:13;;;;;;;11.03;10.50;;;;;;;10.58;100.00;102231.61;2000023;71;32847;-75
2022/04/02 15:29:06;;;;;;;10.57;10.00;;;;;;;9.89;100.00;102246.11;2002718;71;32753;-75
2022/04/02 15:35:15;;;;;;;10.27;9.63;;;;;;;9.17;100.00;102254.52;2013263;70;32875;-73
2022/04/02 15:41:01;;;;;;;10.33;9.83;;;;;;;8.81;100.00;102263.38;2013481;71;33292;-73
2022/04/02 15:46:48;;;;;;;11.20;10.60;;;;;;;9.12;100.00;102274.64;2015071;71;32808;-74
2022/04/02 15:53:19;;;;;;;11.10;10.60;;;;;;;9.10;100.00;102271.28;1991547;71;32742;-71
2022/04/02 15:59:12;;;;;;;11.27;10.73;;;;;;;9.23;100.00;102270.19;2013252;71;33270;-73
2022/04/02 16:05:10;;;;;;;10.97;10.47;;;;;;;9.16;100.00;102270.87;2006195;71;32799;-74
2022/04/02 16:11:24;;;;;;;10.83;10.33;;;;;;;9.27;100.00;102274.17;1997010;71;32798;-73
2022/04/02 16:17:15;;;;;;;11.50;11.00;;;;;;;9.30;100.00;102278.69;2016669;71;32879;-72
2022/04/02 16:23:04;;;;;;;11.33;10.70;;;;;;;9.32;100.00;102275.14;1991556;71;32792;-73
2022/04/02 16:28:48;;;;;;;11.07;10.57;;;;;;;9.26;100.00;102274.70;2007989;71;33283;-73
2022/04/02 16:34:34;;;;;;;11.20;10.50;;;;;;;9.31;100.00;102281.77;2002185;71;32874;-72
2022/04/02 16:40:21;;;;;;;10.93;10.53;;;;;;;9.52;100.00;102281.14;2015184;70;32960;-72
2022/04/02 16:46:11;;;;;;;10.67;10.20;;;;;;;9.59;100.00;102274.05;2011324;71;32871;-78
2022/04/02 16:52:06;;;;;;;10.77;10.37;;;;;;;9.73;100.00;102283.81;2011931;71;32806;-76
2022/04/02 16:57:50;;;;;;;10.97;10.27;;;;;;;9.45;100.00;102292.06;2004495;71;33270;-74
2022/04/02 17:03:35;;;;;;;10.93;10.40;;;;;;;9.28;100.00;102300.82;1994702;70;33475;-73
2022/04/02 17:09:28;;;;;;;11.10;10.70;;;;;;;9.02;100.00;102314.06;2009070;71;32893;-71
2022/04/02 17:15:13;;;;;;;10.60;10.00;;;;;;;8.77;100.00;102320.89;1991526;71;33411;-72
2022/04/02 17:21:09;;;;;;;10.60;10.10;;;;;;;8.36;100.00;102332.78;2009721;71;32796;-72
2022/04/02 17:27:08;;;;;;;10.23;9.73;;;;;;;8.24;100.00;102341.01;1995096;71;32753;-71
2022/04/02 17:32:55;;;;;;;10.60;10.00;;;;;;;8.00;100.00;102351.09;2000675;71;32756;-70
2022/04/02 17:38:40;;;;;;;9.83;9.43;;;;;;;7.71;100.00;102352.72;1998585;71;32820;-70
2022/04/02 17:44:29;;;;;;;10.40;9.87;;;;;;;7.74;100.00;102365.27;2011862;71;32753;-71
2022/04/02 17:50:15;;;;;;;10.13;9.63;;;;;;;7.71;100.00;102368.46;2011400;71;33339;-71
2022/04/02 17:56:12;;;;;;;10.70;10.20;;;;;;;7.57;100.00;102371.90;2018191;71;32817;-71
2022/04/02 18:02:04;;;;;;;9.93;9.53;;;;;;;7.39;100.00;102372.42;2011814;71;32753;-71
2022/04/02 18:07:49;;;;;;;10.13;9.73;;;;;;;7.14;100.00;102371.91;2013430;70;32881;-71
2022/04/02 18:13:42;;;;;;;9.93;9.53;;;;;;;6.83;100.00;102384.35;2011287;71;32922;-68
2022/04/02 18:19:27;;;;;;;10.33;9.87;;;;;;;6.77;100.00;102392.14;1995310;71;32741;-72
2022/04/02 18:25:13;;;;;;;10.40;10.00;;;;;;;6.46;100.00;102404.55;2002570;71;33661;-73
2022/04/02 18:30:57;;;;;;;10.93;10.43;;;;;;;6.06;100.00;102412.99;2016566;71;32911;-70
2022/04/02 18:36:45;;;;;;;10.90;10.40;;;;;;;5.98;100.00;102418.75;2014807;71;32821;-74
2022/04/02 18:42:29;;;;;;;11.33;10.73;;;;;;;6.01;100.00;102432.09;2015068;71;32904;-69
2022/04/02 18:48:16;;;;;;;10.90;10.40;;;;;;;6.00;100.00;102444.19;2016487;71;32974;-70
2022/04/02 18:54:01;;;;;;;11.20;10.70;;;;;;;6.18;100.00;102443.50;2013081;71;32861;-70
2022/04/02 18:59:46;;;;;;;11.43;10.83;;;;;;;6.20;100.00;102451.90;2013228;71;32859;-71
2022/04/02 19:05:31;;;;;;;12.47;11.63;;;;;;;5.92;100.00;102455.45;1995557;71;33386;-69
2022/04/02 19:11:15;;;;;;;13.60;12.97;;;;;;;5.82;100.00;102463.28;2016757;71;33294;-72
2022/04/02 19:16:59;;;;;;;12.53;11.87;;;;;;;5.60;100.00;102470.11;2004196;71;32842;-71
2022/04/02 19:22:44;;;;;;;13.73;13.03;;;;;;;5.43;100.00;102478.78;2007636;71;33285;-68
2022/04/02 19:28:28;;;;;;;13.63;12.87;;;;;;;5.15;100.00;102502.92;2018341;71;32902;-72
2022/04/02 19:34:13;;;;;;;14.67;13.80;;;;;;;5.13;100.00;102496.80;2005775;71;32867;-70
2022/04/02 19:39:58;;;;;;;16.27;15.37;;;;;;;5.20;100.00;102501.77;2007929;71;33288;-73
2022/04/02 19:45:42;;;;;;;20.33;19.07;;;;;;;5.11;100.00;102514.05;2011129;71;32843;-68
2022/04/02 19:51:29;;;;;;;21.90;20.50;;;;;;;5.22;100.00;102520.86;2005996;71;33321;-72
2022/04/02 19:57:13;;;;;;;22.10;20.77;;;;;;;5.36;100.00;102528.92;1970714;72;33045;-69
2022/04/02 20:02:58;;;;;;;28.13;26.23;;;;;;;4.97;100.00;102539.84;2013168;71;32901;-71
2022/04/02 20:08:42;;;;;;;25.93;24.23;;;;;;;4.55;100.00;102551.95;2014936;71;32958;-70
2022/04/02 20:14:27;;;;;;;29.20;27.23;;;;;;;4.46;100.00;102562.28;2009433;71;33337;-73
2022/04/02 20:20:13;;;;;;;38.47;35.67;;;;;;;4.68;100.00;102548.41;1990934;71;32904;-70
2022/04/02 20:25:59;;;;;;;39.43;36.90;;;;;;;4.34;100.00;102557.55;2014682;71;32827;-72
2022/04/02 20:31:44;;;;;;;47.57;44.70;;;;;;;4.04;100.00;102565.17;1997489;71;32914;-73
2022/04/02 20:37:29;;;;;;;52.17;48.87;;;;;;;4.28;100.00;102566.08;2000621;71;32858;-69
2022/04/02 20:43:15;;;;;;;54.17;50.70;;;;;;;4.05;100.00;102571.01;2016586;71;33018;-70
2022/04/02 20:48:59;;;;;;;58.63;55.00;;;;;;;3.74;100.00;102576.88;1994985;71;32802;-69
2022/04/02 20:54:47;;;;;;;63.43;59.53;;;;;;;3.44;100.00;102583.56;2000597;71;33243;-70
2022/04/02 21:00:32;;;;;;;60.07;56.57;;;;;;;3.88;100.00;102584.72;2016605;71;33367;-69
2022/04/02 21:06:18;;;;;;;60.00;56.40;;;;;;;3.70;100.00;102589.84;1998290;71;33045;-67
2022/04/02 21:12:03;;;;;;;72.40;67.07;;;;;;;3.60;100.00;102595.66;2018266;71;32980;-68
2022/04/02 21:17:51;;;;;;;66.63;62.67;;;;;;;3.50;100.00;102597.91;1998457;71;32840;-69
2022/04/02 21:23:35;;;;;;;73.07;68.33;;;;;;;3.27;100.00;102589.84;2016690;71;32938;-69
2022/04/02 21:29:20;;;;;;;64.60;61.10;;;;;;;3.13;100.00;102596.22;2016527;71;32842;-69
2022/04/02 21:35:04;;;;;;;67.23;63.20;;;;;;;3.16;100.00;102602.20;2013082;71;32842;-69
2022/04/02 21:40:50;;;;;;;69.13;65.13;;;;;;;3.31;100.00;102604.03;1998468;71;32945;-69
2022/04/02 21:46:34;;;;;;;67.23;63.47;;;;;;;3.30;100.00;102615.53;2016754;71;32915;-71
2022/04/02 21:52:19;;;;;;;71.23;66.73;;;;;;;2.92;100.00;102623.10;2016786;71;33062;-70
2022/04/02 21:58:05;;;;;;;74.93;70.43;;;;;;;2.83;100.00;102626.98;2011303;71;32971;-72
2022/04/02 22:04:29;;;;;;;79.67;74.87;;;;;;;2.82;100.00;102627.20;2016769;71;32951;-72
2022/04/02 22:10:13;;;;;;;75.03;70.07;;;;;;;2.95;100.00;102626.00;1991636;71;32812;-70
2022/04/02 22:15:57;;;;;;;75.23;70.57;;;;;;;2.92;100.00;102628.59;2011291;71;32832;-71
2022/04/02 22:21:44;;;;;;;72.87;68.57;;;;;;;2.95;100.00;102629.57;2007809;71;33473;-71
2022/04/02 22:27:27;;;;;;;73.37;68.83;;;;;;;2.73;100.00;102635.53;2013350;71;32967;-70
2022/04/02 22:33:11;;;;;;;73.47;68.67;;;;;;;2.71;100.00;102632.12;2004784;70;32770;-73
2022/04/02 22:38:56;;;;;;;70.90;66.53;;;;;;;2.81;100.00;102644.70;2013336;71;32895;-72
2022/04/02 22:44:40;;;;;;;72.07;67.37;;;;;;;1.88;100.00;102652.02;2004322;71;32779;-71
2022/04/02 22:50:24;;;;;;;70.00;65.37;;;;;;;2.16;100.00;102660.48;2004663;71;33268;-73
2022/04/02 22:56:08;;;;;;;68.57;64.27;;;;;;;2.10;100.00;102665.33;2006264;71;32870;-69
2022/04/02 23:01:53;;;;;;;68.70;64.23;;;;;;;1.71;100.00;102669.62;2009612;71;33060;-71
2022/04/02 23:07:37;;;;;;;67.17;62.87;;;;;;;1.63;100.00;102675.13;1997021;71;33344;-71
2022/04/02 23:13:22;;;;;;;69.10;64.77;;;;;;;1.94;100.00;102670.95;2013177;71;32887;-71
2022/04/02 23:19:06;;;;;;;70.03;65.63;;;;;;;2.06;100.00;102678.55;2006409;71;32807;-73
2022/04/02 23:24:50;;;;;;;74.03;69.43;;;;;;;1.87;100.00;102677.70;2016534;71;32873;-70
2022/04/02 23:30:35;;;;;;;69.50;64.90;;;;;;;2.15;100.00;102678.82;2009172;71;32946;-69
2022/04/02 23:36:19;;;;;;;71.17;66.67;;;;;;;2.27;100.00;102680.08;2009564;71;32836;-71
2022/04/02 23:42:04;;;;;;;67.43;63.13;;;;;;;2.17;100.00;102690.98;2009593;71;32830;-72
2022/04/02 23:47:48;;;;;;;67.73;63.43;;;;;;;2.24;100.00;102686.45;2000226;71;32846;-72
2022/04/02 23:53:32;;;;;;;68.00;63.70;;;;;;;1.86;100.00;102681.98;2009242;71;32900;-71
2022/04/02 23:59:16;;;;;;;76.57;71.90;;;;;;;1.82;100.00;102690.58;2011108;71;32840;-72
